This is the latest recevied weather packets stored in our database for station/object AA4OM-2. If no packets are shown the sender has not sent any weather packets the latest 10 day(s).
| Time | Temp. | Humidity | Pressure | Rain* | Wind** | Luminosity | Snow |
|---|---|---|---|---|---|---|---|
| 1777647279 | 14.44° C | 55% | 1018 hPa | 0 mm | - | 533 W/m² | - |
| 1777646977 | 14.44° C | 52% | 1018.2 hPa | 0 mm | - | 500 W/m² | - |
| 1777646672 | 14.44° C | 54% | 1017.9 hPa | 0 mm | - | 293 W/m² | - |
| 1777646368 | 14.44° C | 55% | 1018.1 hPa | 0 mm | - | 370 W/m² | - |
| 1777646065 | 14.44° C | 58% | 1017.9 hPa | 0 mm | - | 372 W/m² | - |
| 1777645761 | 14.44° C | 59% | 1018 hPa | 0 mm | - | 236 W/m² | - |
| 1777645459 | 13.89° C | 64% | 1018 hPa | 0 mm | - | 411 W/m² | - |
| 1777645149 | 14.44° C | 61% | 1017.8 hPa | 0 mm | - | 248 W/m² | - |
| 1777644845 | 13.89° C | 65% | 1017.7 hPa | 0 mm | - | 77 W/m² | - |
| 1777644543 | 13.89° C | 64% | 1017.7 hPa | 0 mm | - | 151 W/m² | - |
| 1777644239 | 13.89° C | 65% | 1017.6 hPa | 0 mm | - | 84 W/m² | - |
| 1777643935 | 13.89° C | 63% | 1017.7 hPa | 0 mm | - | 79 W/m² | - |
| 1777643633 | 13.89° C | 68% | 1017.6 hPa | 0 mm | - | 168 W/m² | - |
| 1777643330 | 13.89° C | 67% | 1017.6 hPa | 0 mm | - | 168 W/m² | - |
| 1777643027 | 13.89° C | 68% | 1017.6 hPa | 0 mm | - | 123 W/m² | - |
| 1777642723 | 13.33° C | 68% | 1017.6 hPa | 0 mm | - | 68 W/m² | - |
| 1777642420 | 13.33° C | 70% | 1017.5 hPa | 0 mm | - | 169 W/m² | - |
| 1777642116 | 13.33° C | 70% | 1017.6 hPa | 0 mm | - | 145 W/m² | - |
| 1777641813 | 13.33° C | 74% | 1017.4 hPa | 0 mm | - | 72 W/m² | - |
| 1777641508 | 13.33° C | 72% | 1017.4 hPa | 0 mm | - | 56 W/m² | - |
| 1777641203 | 13.33° C | 74% | 1017.4 hPa | 0 mm | - | 79 W/m² | - |
| 1777640900 | 13.33° C | 74% | 1017.4 hPa | 0 mm | - | 126 W/m² | - |
| 1777640598 | 12.78° C | 77% | 1017.4 hPa | 0 mm | - | 85 W/m² | - |
| 1777640293 | 12.78° C | 78% | 1017.4 hPa | 0 mm | - | 98 W/m² | - |
| 1777639989 | 11.67° C | 85% | 1017.3 hPa | 0 mm | - | 43 W/m² | - |
* Rain latest hour (hover to see other rain measurements)
** Current wind speed in m/s (hover to see current wind gust speed)